createdAt,value
2022-11-20T00:01:15.694Z,99593.97
2022-11-20T00:03:42.932Z,99592.78
2022-11-20T00:06:12.813Z,99599.16
2022-11-20T00:08:39.958Z,99594.88
2022-11-20T00:11:33.409Z,99596.94
2022-11-20T00:14:02.378Z,99595.84
2022-11-20T00:16:32.116Z,99599.34
2022-11-20T00:18:58.830Z,99599.44
2022-11-20T00:21:27.878Z,99600.81
2022-11-20T00:23:56.306Z,99600.44
2022-11-20T00:26:24.611Z,99603.00
2022-11-20T00:28:56.237Z,99601.91
2022-11-20T00:31:23.259Z,99596.56
2022-11-20T00:33:50.347Z,99602.44
2022-11-20T00:36:19.656Z,99606.34
2022-11-20T00:38:46.883Z,99599.13
2022-11-20T00:41:15.809Z,99601.00
2022-11-20T00:43:43.244Z,99598.22
2022-11-20T00:46:15.996Z,99601.72
2022-11-20T00:48:43.493Z,99601.38
2022-11-20T00:51:12.205Z,99601.72
2022-11-20T00:53:38.796Z,99608.81
2022-11-20T00:56:08.008Z,99611.91
2022-11-20T00:58:39.783Z,99621.28
2022-11-20T01:01:16.248Z,99618.34
2022-11-20T01:03:45.549Z,99620.84
2022-11-20T01:06:15.119Z,99626.81
2022-11-20T01:08:42.168Z,99624.81
2022-11-20T01:11:12.031Z,99622.72
2022-11-20T01:13:39.552Z,99611.72
2022-11-20T01:16:09.631Z,99613.25
2022-11-20T01:18:37.358Z,99616.94
2022-11-20T01:21:14.065Z,99616.59
2022-11-20T01:23:42.118Z,99621.03
2022-11-20T01:26:12.004Z,99621.91
2022-11-20T01:28:39.575Z,99630.56
2022-11-20T01:31:33.947Z,99620.63
2022-11-20T01:34:26.813Z,99619.16
2022-11-20T01:36:54.485Z,99621.34
2022-11-20T01:39:25.968Z,99633.16
2022-11-20T01:42:15.387Z,99638.91
2022-11-20T01:44:59.725Z,99628.22
2022-11-20T01:47:29.233Z,99635.75
2022-11-20T01:50:19.237Z,99630.97
2022-11-20T01:53:06.284Z,99641.84
2022-11-20T01:55:37.599Z,99636.53
2022-11-20T01:58:05.653Z,99641.31
2022-11-20T02:03:20.392Z,99627.84
2022-11-20T02:06:02.997Z,99637.81
2022-11-20T02:08:29.972Z,99631.53
2022-11-20T02:10:56.571Z,99631.34
2022-11-20T02:13:41.846Z,99629.72
2022-11-20T02:16:17.698Z,99640.94
2022-11-20T02:18:45.956Z,99634.13
2022-11-20T02:21:28.179Z,99639.66
2022-11-20T02:23:58.820Z,99642.78
2022-11-20T02:26:28.533Z,99640.94
2022-11-20T02:28:55.917Z,99641.31
2022-11-20T02:31:22.596Z,99642.78
2022-11-20T02:33:54.694Z,99640.94
2022-11-20T02:36:21.262Z,99638.75
2022-11-20T02:38:48.272Z,99641.50
2022-11-20T02:41:14.920Z,99640.94
2022-11-20T02:43:41.473Z,99646.09
2022-11-20T02:46:09.403Z,99642.41
2022-11-20T02:48:36.012Z,99641.88
2022-11-20T02:51:02.556Z,99647.41
2022-11-20T02:53:29.312Z,99645.91
2022-11-20T02:55:56.448Z,99650.16
2022-11-20T02:58:23.070Z,99654.59
2022-11-20T03:00:49.752Z,99656.75
2022-11-20T03:03:16.351Z,99655.06
2022-11-20T03:05:42.889Z,99656.00
2022-11-20T03:08:09.610Z,99651.97
2022-11-20T03:10:36.222Z,99657.63
2022-11-20T03:13:02.773Z,99652.72
2022-11-20T03:15:29.566Z,99656.00
2022-11-20T03:17:56.787Z,99657.06
2022-11-20T03:20:23.995Z,99659.31
2022-11-20T03:22:50.870Z,99650.81
2022-11-20T03:25:17.508Z,99652.16
2022-11-20T03:27:44.288Z,99648.28
2022-11-20T03:30:11.353Z,99646.09
2022-11-20T03:32:38.007Z,99647.19
2022-11-20T03:35:04.922Z,99644.97
2022-11-20T03:37:31.592Z,99651.06
2022-11-20T03:39:58.307Z,99660.13
2022-11-20T03:42:43.539Z,99658.44
2022-11-20T03:45:10.398Z,99661.41
2022-11-20T03:47:36.992Z,99662.69
2022-11-20T03:50:04.687Z,99666.00
2022-11-20T03:52:31.384Z,99663.78
2022-11-20T03:54:57.933Z,99661.91
2022-11-20T03:57:24.580Z,99663.88
2022-11-20T03:59:51.205Z,99658.13
2022-11-20T04:02:17.821Z,99666.69
2022-11-20T04:04:44.546Z,99660.81
2022-11-20T04:07:11.309Z,99666.31
2022-11-20T04:09:37.872Z,99665.38
2022-11-20T04:12:04.869Z,99661.53
2022-11-20T04:14:31.474Z,99663.03
2022-11-20T04:16:58.018Z,99664.53
2022-11-20T04:19:24.658Z,99665.22
2022-11-20T04:21:51.324Z,99673.34
2022-11-20T04:24:17.932Z,99677.84
2022-11-20T04:26:44.581Z,99676.13
2022-11-20T04:29:12.897Z,99680.94
2022-11-20T04:31:39.468Z,99673.25
2022-11-20T04:34:08.163Z,99664.84
2022-11-20T04:36:35.470Z,99667.28
2022-11-20T04:39:05.577Z,99668.59
2022-11-20T04:41:35.308Z,99660.78
2022-11-20T04:44:04.609Z,99675.34
2022-11-20T04:46:37.180Z,99661.34
2022-11-20T04:49:04.171Z,99666.34
2022-11-20T04:51:30.876Z,99665.66
2022-11-20T04:53:57.781Z,99668.75
2022-11-20T04:56:24.517Z,99667.44
2022-11-20T04:58:51.580Z,99670.78
2022-11-20T05:01:23.686Z,99667.81
2022-11-20T05:03:50.709Z,99669.69
2022-11-20T05:06:20.011Z,99665.41
2022-11-20T05:08:47.987Z,99672.59
2022-11-20T05:11:16.755Z,99658.94
2022-11-20T05:13:43.676Z,99665.06
2022-11-20T05:16:22.263Z,99656.91
2022-11-20T05:18:50.995Z,99662.09
2022-11-20T05:21:18.286Z,99658.56
2022-11-20T05:23:45.528Z,99657.06
2022-11-20T05:26:18.423Z,99655.19
2022-11-20T05:28:45.218Z,99652.41
2022-11-20T05:31:22.020Z,99659.44
2022-11-20T05:33:52.022Z,99657.63
2022-11-20T05:36:19.013Z,99665.25
2022-11-20T05:38:49.046Z,99664.13
2022-11-20T05:41:19.662Z,99673.81
2022-11-20T05:43:47.528Z,99662.28
2022-11-20T05:46:17.021Z,99669.66
2022-11-20T05:48:45.479Z,99668.75
2022-11-20T05:51:17.342Z,99666.22
2022-11-20T05:53:48.243Z,99671.00
2022-11-20T05:56:18.569Z,99671.22
2022-11-20T05:58:45.566Z,99674.13
2022-11-20T06:01:24.606Z,99670.81
2022-11-20T06:03:52.297Z,99669.72
2022-11-20T06:06:19.994Z,99674.72
2022-11-20T06:08:47.240Z,99667.50
2022-11-20T06:11:14.869Z,99671.56
2022-11-20T06:13:42.462Z,99661.97
2022-11-20T06:16:10.189Z,99664.19
2022-11-20T06:18:36.803Z,99666.97
2022-11-20T06:21:12.084Z,99678.78
2022-11-20T06:23:38.959Z,99670.44
2022-11-20T06:26:07.701Z,99672.81
2022-11-20T06:28:34.716Z,99670.03
2022-11-20T06:31:01.435Z,99669.69
2022-11-20T06:33:28.574Z,99671.91
2022-11-20T06:36:01.685Z,99674.16
2022-11-20T06:38:30.230Z,99673.97
2022-11-20T06:40:57.245Z,99672.84
2022-11-20T06:43:25.145Z,99677.47
2022-11-20T06:45:55.528Z,99673.41
2022-11-20T06:48:23.611Z,99674.53
2022-11-20T06:50:50.755Z,99674.34
2022-11-20T06:53:17.382Z,99677.09
2022-11-20T06:55:45.903Z,99685.97
2022-11-20T06:58:14.080Z,99684.84
2022-11-20T07:00:40.886Z,99673.78
2022-11-20T07:03:09.676Z,99677.44
2022-11-20T07:05:37.388Z,99676.72
2022-11-20T07:08:04.622Z,99680.06
2022-11-20T07:10:31.862Z,99685.56
2022-11-20T07:12:58.638Z,99681.16
2022-11-20T07:15:26.452Z,99684.47
2022-11-20T07:17:53.359Z,99673.94
2022-11-20T07:20:20.100Z,99683.88
2022-11-20T07:22:46.697Z,99682.28
2022-11-20T07:25:13.275Z,99685.03
2022-11-20T07:27:39.890Z,99689.66
2022-11-20T07:30:07.241Z,99693.34
2022-11-20T07:32:33.851Z,99695.91
2022-11-20T07:35:00.447Z,99704.03
2022-11-20T07:37:27.182Z,99701.63
2022-11-20T07:39:53.754Z,99698.88
2022-11-20T07:42:20.368Z,99705.16
2022-11-20T07:44:46.945Z,99716.06
2022-11-20T07:47:13.518Z,99714.53
2022-11-20T07:49:40.172Z,99705.47
2022-11-20T07:52:06.776Z,99705.16
2022-11-20T07:54:33.364Z,99706.47
2022-11-20T07:57:00.092Z,99704.56
2022-11-20T07:59:26.775Z,99707.53
2022-11-20T08:01:53.346Z,99712.66
2022-11-20T08:04:20.284Z,99709.56
2022-11-20T08:06:46.878Z,99709.88
2022-11-20T08:09:13.437Z,99709.28
2022-11-20T08:11:58.999Z,99701.72
2022-11-20T08:14:25.606Z,99716.84
2022-11-20T08:16:52.304Z,99710.50
2022-11-20T08:19:20.290Z,99716.81
2022-11-20T08:21:47.313Z,99710.13
2022-11-20T08:24:14.187Z,99721.75
2022-11-20T08:26:41.700Z,99737.41
2022-11-20T08:29:08.429Z,99733.63
2022-11-20T08:31:35.291Z,99738.09
2022-11-20T08:34:06.298Z,99737.50
2022-11-20T08:36:36.076Z,99734.06
2022-11-20T08:39:03.750Z,99743.84
2022-11-20T08:41:31.824Z,99744.00
2022-11-20T08:43:59.577Z,99742.56
2022-11-20T08:46:28.108Z,99753.31
2022-11-20T08:48:54.811Z,99756.66
2022-11-20T08:51:21.524Z,99751.81
2022-11-20T08:53:49.735Z,99751.59
2022-11-20T08:56:16.779Z,99757.69
2022-11-20T08:59:16.000Z,99767.00
2022-11-20T09:01:30.561Z,99763.97
2022-11-20T09:03:58.161Z,99766.78
2022-11-20T09:06:24.811Z,99780.78
2022-11-20T09:08:54.843Z,99761.19
2022-11-20T09:11:22.106Z,99764.16
2022-11-20T09:13:48.735Z,99771.72
2022-11-20T09:16:15.709Z,99778.88
2022-11-20T09:18:42.326Z,99775.94
2022-11-20T09:21:14.791Z,99780.44
2022-11-20T09:23:41.473Z,99775.97
2022-11-20T09:26:13.461Z,99770.69
2022-11-20T09:28:40.700Z,99764.47
2022-11-20T09:31:22.645Z,99772.19
2022-11-20T09:33:49.340Z,99776.59
2022-11-20T09:36:16.981Z,99786.66
2022-11-20T09:38:43.631Z,99796.50
2022-11-20T09:41:55.074Z,99804.63
2022-11-20T09:44:33.927Z,99812.75
2022-11-20T09:47:08.410Z,99817.38
2022-11-20T09:49:53.157Z,99811.41
2022-11-20T09:52:28.994Z,99798.84
2022-11-20T09:54:56.355Z,99800.31
2022-11-20T09:57:31.327Z,99799.91
2022-11-20T10:00:02.047Z,99798.22
2022-11-20T10:02:53.227Z,99801.97
2022-11-20T10:05:28.967Z,99807.13
2022-11-20T10:08:18.859Z,99810.44
2022-11-20T10:11:05.711Z,99806.78
2022-11-20T10:13:56.000Z,99800.81
2022-11-20T10:16:34.496Z,99805.69
2022-11-20T10:19:23.615Z,99786.72
2022-11-20T10:22:10.301Z,99781.53
2022-11-20T10:24:45.058Z,99772.19
2022-11-20T10:27:26.718Z,99771.91
2022-11-20T10:30:04.835Z,99762.13
2022-11-20T10:32:39.215Z,99755.31
2022-11-20T10:35:14.844Z,99743.47
2022-11-20T10:37:46.078Z,99737.91
2022-11-20T10:41:15.864Z,99726.69
2022-11-20T10:43:43.061Z,99714.47
2022-11-20T10:46:19.649Z,99716.75
2022-11-20T10:48:47.576Z,99714.31
2022-11-20T10:51:38.326Z,99707.59
2022-11-20T10:54:25.376Z,99689.47
2022-11-20T10:56:54.245Z,99688.59
2022-11-20T10:59:30.085Z,99684.34
2022-11-20T11:01:57.364Z,99685.38
2022-11-20T11:04:38.064Z,99690.69
2022-11-20T11:07:18.996Z,99681.97
2022-11-20T11:09:56.344Z,99666.34
2022-11-20T11:12:24.539Z,99669.91
2022-11-20T11:14:53.690Z,99657.06
2022-11-20T11:17:28.466Z,99640.91
2022-11-20T11:20:18.534Z,99642.59
2022-11-20T11:22:57.528Z,99640.91
2022-11-20T11:25:28.521Z,99648.88
2022-11-20T11:27:57.196Z,99628.63
2022-11-20T11:30:25.587Z,99623.19
2022-11-20T11:33:03.033Z,99617.91
2022-11-20T11:35:30.129Z,99615.78
2022-11-20T11:38:08.481Z,99607.81
2022-11-20T11:40:39.368Z,99592.50
2022-11-20T11:43:28.369Z,99580.00
2022-11-20T11:45:56.548Z,99577.81
2022-11-20T11:48:23.283Z,99576.38
2022-11-20T11:50:52.901Z,99566.66
2022-11-20T11:53:22.815Z,99567.06
2022-11-20T11:56:09.445Z,99561.16
2022-11-20T11:58:51.429Z,99554.81
2022-11-20T12:01:35.888Z,99548.56
2022-11-20T12:04:43.108Z,99554.91
2022-11-20T12:10:16.539Z,99566.53
2022-11-20T12:12:47.813Z,99571.34
2022-11-20T12:15:24.575Z,99557.91
2022-11-20T12:17:51.157Z,99548.25
2022-11-20T12:20:18.146Z,99544.44
2022-11-20T12:23:23.267Z,99552.91
2022-11-20T12:25:57.143Z,99567.84
2022-11-20T12:28:32.785Z,99569.69
2022-11-20T12:31:14.464Z,99567.56
2022-11-20T12:34:08.944Z,99578.22
2022-11-20T12:36:59.661Z,99598.69
2022-11-20T12:39:43.750Z,99592.28
2022-11-20T12:42:43.304Z,99594.47
2022-11-20T12:45:28.035Z,99599.59
2022-11-20T12:48:19.604Z,99599.50
2022-11-20T12:51:13.840Z,99589.69
2022-11-20T12:54:08.137Z,99579.59
2022-11-20T12:56:53.730Z,99572.69
2022-11-20T12:59:29.685Z,99567.75
2022-11-20T13:02:31.110Z,99557.63
2022-11-20T13:05:18.482Z,99557.44
2022-11-20T13:07:46.305Z,99552.50
2022-11-20T13:10:24.852Z,99535.94
2022-11-20T13:13:14.010Z,99521.44
2022-11-20T13:16:01.880Z,99507.69
2022-11-20T13:18:40.399Z,99505.88
2022-11-20T13:21:21.386Z,99504.84
2022-11-20T13:23:48.782Z,99495.63
2022-11-20T13:26:21.569Z,99497.28
2022-11-20T13:29:00.508Z,99476.72
2022-11-20T13:31:39.536Z,99483.19
2022-11-20T13:34:08.295Z,99499.59
2022-11-20T13:36:37.493Z,99496.09
2022-11-20T13:39:04.241Z,99494.03
2022-11-20T13:41:39.083Z,99485.25
2022-11-20T13:44:14.654Z,99485.84
2022-11-20T13:46:46.866Z,99480.25
2022-11-20T13:49:28.113Z,99479.38
2022-11-20T13:52:06.902Z,99481.44
2022-11-20T13:54:42.390Z,99481.16
2022-11-20T13:57:28.304Z,99473.66
2022-11-20T13:59:59.403Z,99473.81
2022-11-20T14:02:31.143Z,99471.31
2022-11-20T14:05:00.970Z,99453.59
2022-11-20T14:07:41.824Z,99462.22
2022-11-20T14:10:21.481Z,99458.56
2022-11-20T14:12:48.884Z,99454.03
2022-11-20T14:15:32.882Z,99452.56
2022-11-20T14:18:00.690Z,99452.69
2022-11-20T14:20:29.940Z,99451.84
2022-11-20T14:22:56.888Z,99442.47
2022-11-20T14:25:28.480Z,99456.53
2022-11-20T14:27:58.269Z,99450.38
2022-11-20T14:30:27.780Z,99451.69
2022-11-20T14:32:59.325Z,99459.47
2022-11-20T14:35:31.694Z,99452.44
2022-11-20T14:37:58.664Z,99459.44
2022-11-20T14:40:36.764Z,99457.53
2022-11-20T14:43:26.438Z,99450.38
2022-11-20T14:45:57.570Z,99437.34
2022-11-20T14:48:30.785Z,99447.59
2022-11-20T14:50:58.070Z,99438.66
2022-11-20T14:53:26.103Z,99435.84
2022-11-20T14:56:00.539Z,99436.75
2022-11-20T14:58:35.075Z,99441.00
2022-11-20T15:01:07.867Z,99449.91
2022-11-20T15:03:36.802Z,99442.91
2022-11-20T15:06:03.838Z,99445.22
2022-11-20T15:08:30.495Z,99440.13
2022-11-20T15:10:58.007Z,99441.31
2022-11-20T15:13:37.521Z,99449.34
2022-11-20T15:16:11.116Z,99448.34
2022-11-20T15:18:40.585Z,99433.41
2022-11-20T15:21:21.886Z,99434.41
2022-11-20T15:23:49.062Z,99433.94
2022-11-20T15:26:22.784Z,99441.72
2022-11-20T15:28:51.215Z,99437.78
2022-11-20T15:31:21.677Z,99445.97
2022-11-20T15:33:48.965Z,99442.16
2022-11-20T15:36:15.591Z,99447.56
2022-11-20T15:38:42.338Z,99457.22
2022-11-20T15:41:10.254Z,99453.88
2022-11-20T15:43:36.966Z,99461.94
2022-11-20T15:46:05.399Z,99454.47
2022-11-20T15:48:47.367Z,99458.41
2022-11-20T15:51:35.039Z,99461.94
2022-11-20T15:54:03.283Z,99460.03
2022-11-20T15:56:30.323Z,99468.81
2022-11-20T15:58:56.906Z,99467.81
2022-11-20T16:01:24.143Z,99462.38
2022-11-20T16:03:50.763Z,99477.16
2022-11-20T16:06:17.372Z,99478.34
2022-11-20T16:08:44.448Z,99475.44
2022-11-20T16:11:16.357Z,99485.94
2022-11-20T16:14:01.676Z,99488.69
2022-11-20T16:16:34.395Z,99491.63
2022-11-20T16:19:01.314Z,99499.78
2022-11-20T16:21:32.375Z,99511.78
2022-11-20T16:24:11.635Z,99531.88
2022-11-20T16:26:38.415Z,99531.25
2022-11-20T16:29:06.615Z,99520.72
2022-11-20T16:31:33.612Z,99522.91
2022-11-20T16:34:05.876Z,99528.53
2022-11-20T16:36:36.834Z,99525.59
2022-11-20T16:39:04.777Z,99502.94
2022-11-20T16:41:33.935Z,99508.22
2022-11-20T16:44:02.780Z,99512.84
2022-11-20T16:46:32.450Z,99516.88
2022-11-20T16:49:00.458Z,99521.59
2022-11-20T16:51:29.371Z,99517.81
2022-11-20T16:53:56.768Z,99520.75
2022-11-20T16:56:26.825Z,99531.88
2022-11-20T16:58:56.277Z,99534.94
2022-11-20T17:01:24.896Z,99524.19
2022-11-20T17:03:59.726Z,99530.97
2022-11-20T17:06:29.110Z,99536.97
2022-11-20T17:08:56.936Z,99533.31
2022-11-20T17:11:24.821Z,99533.44
2022-11-20T17:13:52.057Z,99540.03
2022-11-20T17:16:20.667Z,99527.72
2022-11-20T17:18:49.984Z,99525.22
2022-11-20T17:21:18.411Z,99517.94
2022-11-20T17:23:46.506Z,99525.69
2022-11-20T17:26:22.780Z,99531.16
2022-11-20T17:28:57.879Z,99545.31
2022-11-20T17:31:25.158Z,99536.06
2022-11-20T17:33:52.201Z,99544.06
2022-11-20T17:36:19.792Z,99538.72
2022-11-20T17:38:46.861Z,99544.28
2022-11-20T17:41:16.091Z,99549.94
2022-11-20T17:43:43.749Z,99541.72
2022-11-20T17:46:21.897Z,99539.25
2022-11-20T17:48:49.375Z,99548.81
2022-11-20T17:51:21.373Z,99553.81
2022-11-20T17:53:51.235Z,99548.84
2022-11-20T17:56:36.941Z,99550.25
2022-11-20T17:59:09.083Z,99561.91
2022-11-20T18:49:57.711Z,99614.63
2022-11-20T18:52:35.810Z,99617.56
2022-11-20T18:55:05.533Z,99628.09
2022-11-20T18:57:32.772Z,99630.34
2022-11-20T19:00:03.456Z,99627.69
2022-11-20T19:02:34.473Z,99628.34
2022-11-20T19:05:04.984Z,99624.84
2022-11-20T19:07:31.689Z,99618.06
2022-11-20T19:10:03.439Z,99627.63
2022-11-20T19:12:30.661Z,99626.06
2022-11-20T19:14:57.245Z,99646.06
2022-11-20T19:17:24.049Z,99649.47
2022-11-20T19:19:51.168Z,99648.63
2022-11-20T19:22:17.760Z,99647.50
2022-11-20T19:24:44.480Z,99640.16
2022-11-20T19:27:11.101Z,99634.91
2022-11-20T19:29:37.669Z,99644.13
2022-11-20T19:32:04.620Z,99649.28
2022-11-20T19:34:31.672Z,99650.59
2022-11-20T19:36:58.881Z,99646.72
2022-11-20T19:39:25.928Z,99656.31
2022-11-20T19:41:52.680Z,99652.28
2022-11-20T19:44:19.462Z,99650.66
2022-11-20T19:46:46.152Z,99655.22
2022-11-20T19:49:14.396Z,99667.25
2022-11-20T19:51:48.866Z,99666.28
2022-11-20T19:54:16.695Z,99669.97
2022-11-20T19:56:43.659Z,99679.44
2022-11-20T19:59:10.677Z,99684.00
2022-11-20T20:01:37.345Z,99678.53
2022-11-20T20:04:05.583Z,99689.78
2022-11-20T20:06:34.446Z,99702.06
2022-11-20T20:09:12.808Z,99704.69
2022-11-20T20:11:40.391Z,99709.88
2022-11-20T20:14:10.183Z,99708.25
2022-11-20T20:16:37.326Z,99711.78
2022-11-20T20:19:05.770Z,99716.16
2022-11-20T20:21:34.385Z,99707.09
2022-11-20T20:24:01.372Z,99708.41
2022-11-20T20:26:30.370Z,99715.75
2022-11-20T20:28:57.123Z,99723.47
2022-11-20T20:31:25.967Z,99724.56
2022-11-20T20:33:53.090Z,99737.16
2022-11-20T20:36:21.261Z,99740.94
2022-11-20T20:38:48.410Z,99739.44
2022-11-20T20:41:19.772Z,99745.25
2022-11-20T20:44:04.577Z,99749.94
2022-11-20T20:46:31.370Z,99742.78
2022-11-20T20:48:58.032Z,99746.19
2022-11-20T20:51:24.714Z,99750.72
2022-11-20T20:53:51.556Z,99749.94
2022-11-20T20:56:19.041Z,99769.50
2022-11-20T20:58:45.834Z,99766.66
2022-11-20T21:01:14.803Z,99770.28
2022-11-20T21:03:41.666Z,99769.34
2022-11-20T21:06:09.982Z,99772.31
2022-11-20T21:08:40.300Z,99768.38
2022-11-20T21:11:13.334Z,99765.19
2022-11-20T21:13:41.338Z,99755.19
2022-11-20T21:16:08.100Z,99758.88
2022-11-20T21:18:35.026Z,99754.63
2022-11-20T21:21:24.332Z,99765.41
2022-11-20T21:23:52.077Z,99764.53
2022-11-20T21:26:19.300Z,99763.63
2022-11-20T21:28:46.258Z,99758.19
2022-11-20T21:31:15.705Z,99767.75
2022-11-20T21:33:44.545Z,99767.09
2022-11-20T21:36:17.680Z,99772.53
2022-11-20T21:38:45.144Z,99778.16
2022-11-20T21:41:13.474Z,99782.88
2022-11-20T21:43:40.396Z,99790.97
2022-11-20T21:46:15.608Z,99780.69
2022-11-20T21:48:44.243Z,99771.91
2022-11-20T21:51:16.827Z,99759.00
2022-11-20T21:53:44.576Z,99763.63
2022-11-20T21:56:16.505Z,99754.44
2022-11-20T21:58:46.802Z,99748.88
2022-11-20T22:01:16.244Z,99759.72
2022-11-20T22:03:43.473Z,99760.47
2022-11-20T22:06:10.437Z,99757.00
2022-11-20T22:08:38.256Z,99756.75
2022-11-20T22:11:07.223Z,99756.72
2022-11-20T22:13:52.540Z,99762.94
2022-11-20T22:16:19.171Z,99767.84
2022-11-20T22:18:47.773Z,99774.00
2022-11-20T22:21:16.273Z,99768.22
2022-11-20T22:23:43.066Z,99764.34
2022-11-20T22:26:17.828Z,99762.53
2022-11-20T22:28:48.146Z,99765.09
2022-11-20T22:31:15.501Z,99769.75
2022-11-20T22:33:42.234Z,99759.13
2022-11-20T22:36:14.117Z,99753.19
2022-11-20T22:38:41.033Z,99761.34
2022-11-20T22:41:12.810Z,99760.41
2022-11-20T22:43:40.409Z,99762.56
2022-11-20T22:46:09.189Z,99767.22
2022-11-20T22:48:37.592Z,99763.41
2022-11-20T22:51:09.583Z,99756.28
2022-11-20T22:53:36.561Z,99756.66
2022-11-20T22:56:04.484Z,99758.88
2022-11-20T22:58:31.568Z,99754.47
2022-11-20T23:01:13.410Z,99752.38
2022-11-20T23:03:41.882Z,99755.44
2022-11-20T23:06:09.650Z,99760.59
2022-11-20T23:08:37.840Z,99764.22
2022-11-20T23:11:09.996Z,99764.13
2022-11-20T23:13:36.801Z,99773.16
2022-11-20T23:16:06.802Z,99770.41
2022-11-20T23:18:34.401Z,99751.78
2022-11-20T23:21:05.755Z,99763.03
2022-11-20T23:23:32.796Z,99760.97
2022-11-20T23:26:08.046Z,99772.09
2022-11-20T23:28:35.553Z,99770.66
2022-11-20T23:31:03.653Z,99770.72
2022-11-20T23:33:30.636Z,99772.09
2022-11-20T23:35:57.350Z,99769.66
2022-11-20T23:38:23.941Z,99761.34
2022-11-20T23:40:51.562Z,99746.41
2022-11-20T23:43:19.958Z,99739.25
2022-11-20T23:45:48.505Z,99742.56
2022-11-20T23:48:15.740Z,99740.34
2022-11-20T23:50:43.776Z,99749.16
2022-11-20T23:53:11.355Z,99748.09
2022-11-20T23:55:38.338Z,99741.50
2022-11-20T23:58:05.444Z,99738.19
